createdAt,value
2023-03-05T00:01:36.038Z,1.73
2023-03-05T00:04:04.644Z,1.60
2023-03-05T00:06:32.168Z,2.00
2023-03-05T00:08:59.005Z,1.40
2023-03-05T00:11:28.273Z,1.43
2023-03-05T00:13:55.341Z,1.70
2023-03-05T00:16:23.049Z,1.43
2023-03-05T00:18:50.116Z,1.83
2023-03-05T00:21:19.806Z,2.07
2023-03-05T00:23:46.693Z,1.27
2023-03-05T00:26:13.483Z,1.17
2023-03-05T00:28:40.961Z,1.60
2023-03-05T00:31:07.973Z,1.40
2023-03-05T00:33:34.940Z,1.47
2023-03-05T00:36:05.144Z,1.53
2023-03-05T00:38:32.060Z,1.90
2023-03-05T00:40:58.882Z,2.13
2023-03-05T00:43:25.931Z,2.73
2023-03-05T00:45:52.697Z,2.40
2023-03-05T00:48:19.696Z,2.03
2023-03-05T00:50:46.543Z,2.17
2023-03-05T00:53:13.632Z,2.43
2023-03-05T00:55:40.478Z,3.90
2023-03-05T00:58:07.349Z,2.40
2023-03-05T01:00:34.233Z,2.67
2023-03-05T01:03:00.976Z,2.10
2023-03-05T01:05:28.037Z,2.30
2023-03-05T01:07:55.770Z,3.03
2023-03-05T01:10:23.982Z,2.83
2023-03-05T01:12:50.714Z,2.70
2023-03-05T01:15:17.558Z,3.10
2023-03-05T01:17:44.442Z,4.07
2023-03-05T01:20:13.496Z,4.80
2023-03-05T01:22:40.437Z,2.30
2023-03-05T01:25:07.786Z,4.50
2023-03-05T01:27:34.531Z,5.80
2023-03-05T01:30:01.680Z,4.80
2023-03-05T01:32:28.616Z,4.87
2023-03-05T01:34:55.557Z,4.60
2023-03-05T01:37:22.296Z,4.30
2023-03-05T01:39:49.136Z,4.23
2023-03-05T01:42:15.931Z,3.70
2023-03-05T01:44:59.619Z,3.50
2023-03-05T01:47:26.548Z,2.93
2023-03-05T01:49:54.542Z,3.10
2023-03-05T01:52:23.263Z,2.67
2023-03-05T01:54:53.218Z,2.17
2023-03-05T01:57:21.996Z,2.53
2023-03-05T01:59:50.502Z,2.47
2023-03-05T02:02:18.528Z,3.37
2023-03-05T02:04:47.304Z,3.20
2023-03-05T02:07:14.711Z,2.87
2023-03-05T02:09:42.018Z,2.27
2023-03-05T02:12:09.384Z,1.87
2023-03-05T02:14:37.299Z,1.97
2023-03-05T02:17:04.957Z,1.87
2023-03-05T02:19:46.243Z,2.27
2023-03-05T02:22:17.315Z,1.53
2023-03-05T02:24:44.508Z,2.30
2023-03-05T02:27:12.871Z,2.10
2023-03-05T02:29:42.062Z,2.27
2023-03-05T02:32:09.769Z,2.10
2023-03-05T02:34:36.679Z,2.30
2023-03-05T02:37:04.853Z,2.37
2023-03-05T02:39:33.845Z,3.07
2023-03-05T02:42:00.609Z,3.10
2023-03-05T02:44:28.728Z,2.67
2023-03-05T02:46:55.497Z,4.30
2023-03-05T02:49:22.427Z,4.13
2023-03-05T02:51:49.240Z,2.47
2023-03-05T02:54:17.167Z,2.40
2023-03-05T02:56:44.118Z,3.00
2023-03-05T02:59:11.020Z,3.00
2023-03-05T03:01:37.825Z,3.93
2023-03-05T03:04:04.839Z,2.67
2023-03-05T03:06:31.620Z,2.40
2023-03-05T03:08:58.559Z,2.17
2023-03-05T03:11:25.792Z,1.97
2023-03-05T03:13:52.679Z,2.23
2023-03-05T03:16:19.563Z,1.90
2023-03-05T03:18:48.848Z,1.70
2023-03-05T03:21:20.529Z,1.93
2023-03-05T03:23:47.336Z,2.00
2023-03-05T03:26:14.314Z,1.40
2023-03-05T03:28:41.543Z,1.60
2023-03-05T03:31:08.749Z,2.17
2023-03-05T03:33:35.758Z,1.53
2023-03-05T03:36:03.866Z,1.70
2023-03-05T03:38:30.652Z,1.70
2023-03-05T03:40:57.860Z,1.30
2023-03-05T03:43:24.930Z,1.80
2023-03-05T03:45:51.784Z,1.80
2023-03-05T03:48:19.311Z,1.47
2023-03-05T03:50:46.040Z,1.80
2023-03-05T03:53:14.480Z,1.90
2023-03-05T03:55:42.950Z,1.67
2023-03-05T03:58:09.821Z,1.70
2023-03-05T04:00:36.966Z,1.70
2023-03-05T04:03:03.761Z,1.30
2023-03-05T04:05:30.793Z,1.53
2023-03-05T04:07:58.712Z,1.40
2023-03-05T04:10:25.939Z,1.57
2023-03-05T04:12:52.948Z,1.70
2023-03-05T04:15:20.139Z,0.97
2023-03-05T04:17:47.112Z,1.83
2023-03-05T04:20:13.928Z,2.30
2023-03-05T04:22:40.759Z,3.10
2023-03-05T04:25:08.588Z,2.40
2023-03-05T04:27:37.667Z,2.37
2023-03-05T04:30:04.926Z,2.77
2023-03-05T04:32:31.828Z,2.40
2023-03-05T04:34:59.036Z,2.43
2023-03-05T04:37:26.617Z,2.53
2023-03-05T04:39:53.536Z,2.23
2023-03-05T04:42:21.278Z,2.90
2023-03-05T04:44:51.610Z,3.30
2023-03-05T04:47:18.993Z,2.90
2023-03-05T04:49:46.009Z,2.80
2023-03-05T04:52:13.765Z,3.40
2023-03-05T04:54:40.500Z,2.60
2023-03-05T04:57:07.382Z,3.17
2023-03-05T04:59:34.252Z,3.60
2023-03-05T05:02:01.152Z,3.13
2023-03-05T05:04:27.912Z,3.97
2023-03-05T05:06:55.492Z,3.57
2023-03-05T05:09:22.415Z,3.20
2023-03-05T05:11:49.224Z,3.50
2023-03-05T05:14:16.025Z,2.77
2023-03-05T05:16:43.094Z,3.00
2023-03-05T05:19:09.895Z,2.93
2023-03-05T05:21:36.782Z,2.73
2023-03-05T05:24:03.641Z,3.00
2023-03-05T05:26:30.804Z,3.03
2023-03-05T05:28:57.640Z,3.53
2023-03-05T05:31:24.430Z,3.90
2023-03-05T05:33:51.318Z,3.10
2023-03-05T05:36:19.480Z,4.00
2023-03-05T05:38:46.328Z,2.63
2023-03-05T05:41:15.177Z,2.37
2023-03-05T05:43:42.321Z,2.90
2023-03-05T05:46:11.869Z,2.70
2023-03-05T05:48:38.750Z,2.70
2023-03-05T05:51:13.279Z,2.27
2023-03-05T05:53:40.352Z,2.10
2023-03-05T05:56:08.174Z,3.93
2023-03-05T05:58:35.535Z,2.37
2023-03-05T06:01:02.959Z,2.80
2023-03-05T06:03:29.864Z,3.43
2023-03-05T06:05:57.084Z,3.73
2023-03-05T06:08:23.822Z,3.33
2023-03-05T06:10:54.060Z,4.20
2023-03-05T06:13:20.948Z,3.40
2023-03-05T06:15:55.468Z,4.47
2023-03-05T06:18:22.384Z,4.33
2023-03-05T06:20:59.189Z,3.67
2023-03-05T06:23:26.587Z,3.20
2023-03-05T06:25:54.007Z,3.37
2023-03-05T06:28:21.168Z,3.60
2023-03-05T06:30:48.755Z,4.00
2023-03-05T06:33:15.587Z,2.80
2023-03-05T06:35:42.674Z,3.30
2023-03-05T06:38:09.684Z,3.17
2023-03-05T06:40:39.352Z,3.43
2023-03-05T06:43:06.451Z,3.57
2023-03-05T06:45:33.364Z,3.57
2023-03-05T06:48:00.146Z,3.37
2023-03-05T06:50:27.060Z,3.97
2023-03-05T06:52:53.874Z,4.50
2023-03-05T06:55:21.148Z,4.37
2023-03-05T06:57:47.905Z,5.10
2023-03-05T07:00:14.970Z,4.77
2023-03-05T07:02:41.868Z,5.70
2023-03-05T07:05:09.150Z,5.90
2023-03-05T07:07:36.217Z,5.67
2023-03-05T07:10:03.672Z,6.50
2023-03-05T07:12:30.530Z,4.77
2023-03-05T07:14:57.424Z,5.03
2023-03-05T07:17:24.162Z,4.80
2023-03-05T07:19:51.031Z,4.80
2023-03-05T07:22:17.816Z,5.40
2023-03-05T07:24:44.791Z,5.40
2023-03-05T07:27:11.572Z,5.03
2023-03-05T07:29:38.698Z,5.27
2023-03-05T07:32:05.834Z,5.30
2023-03-05T07:34:32.567Z,5.83
2023-03-05T07:36:59.431Z,6.37
2023-03-05T07:39:26.173Z,6.27
2023-03-05T07:41:53.073Z,5.93
2023-03-05T07:44:27.798Z,5.77
2023-03-05T07:46:54.697Z,5.67
2023-03-05T07:49:21.451Z,6.80
2023-03-05T07:51:48.300Z,7.40
2023-03-05T07:54:15.089Z,7.57
2023-03-05T07:56:41.925Z,7.93
2023-03-05T07:59:11.184Z,7.70
2023-03-05T08:01:38.173Z,8.53
2023-03-05T08:04:05.990Z,7.90
2023-03-05T08:06:32.851Z,8.20
2023-03-05T08:09:00.018Z,7.07
2023-03-05T08:11:26.901Z,7.93
2023-03-05T08:13:53.701Z,7.23
2023-03-05T08:16:21.807Z,10.13
2023-03-05T08:18:48.694Z,10.27
2023-03-05T08:21:35.745Z,8.93
2023-03-05T08:24:04.259Z,9.80
2023-03-05T08:26:32.001Z,9.87
2023-03-05T08:28:59.034Z,9.87
2023-03-05T08:31:26.985Z,10.27
2023-03-05T08:33:54.888Z,10.83
2023-03-05T08:36:21.674Z,10.67
2023-03-05T08:38:50.697Z,11.60
2023-03-05T08:41:18.147Z,11.40
2023-03-05T08:43:45.115Z,12.83
2023-03-05T08:46:12.840Z,12.13
2023-03-05T08:48:39.661Z,16.70
2023-03-05T08:51:13.928Z,13.07
2023-03-05T08:53:41.412Z,13.10
2023-03-05T08:56:08.381Z,30.53
2023-03-05T08:58:35.193Z,28.67
2023-03-05T09:01:02.732Z,32.83
2023-03-05T09:03:29.615Z,33.33
2023-03-05T09:06:03.025Z,24.03
2023-03-05T09:08:30.300Z,22.53
2023-03-05T09:10:57.656Z,20.13
2023-03-05T09:13:24.529Z,17.57
2023-03-05T09:15:58.643Z,19.33
2023-03-05T09:18:25.788Z,16.33
2023-03-05T09:20:52.823Z,16.30
2023-03-05T09:23:19.730Z,16.90
2023-03-05T09:25:46.560Z,13.27
2023-03-05T09:28:13.494Z,15.47
2023-03-05T09:30:40.396Z,15.37
2023-03-05T09:33:07.496Z,13.67
2023-03-05T09:35:35.390Z,11.17
2023-03-05T09:38:02.654Z,14.00
2023-03-05T09:40:41.863Z,11.57
2023-03-05T09:43:14.847Z,13.20
2023-03-05T09:45:59.044Z,13.17
2023-03-05T09:48:46.629Z,13.90
2023-03-05T09:51:16.914Z,12.83
2023-03-05T09:54:01.584Z,13.83
2023-03-05T09:56:36.085Z,12.37
2023-03-05T09:59:09.850Z,11.20
2023-03-05T10:01:39.156Z,13.87
2023-03-05T10:04:09.060Z,15.80
2023-03-05T10:06:37.222Z,12.57
2023-03-05T10:09:07.040Z,12.13
2023-03-05T10:11:36.762Z,11.50
2023-03-05T10:14:04.186Z,11.07
2023-03-05T10:16:43.291Z,9.53
2023-03-05T10:19:10.164Z,15.77
2023-03-05T10:21:42.719Z,13.07
2023-03-05T10:24:17.562Z,8.77
2023-03-05T10:27:03.284Z,7.93
2023-03-05T10:29:39.028Z,7.80
2023-03-05T10:32:26.105Z,7.03
2023-03-05T10:35:01.852Z,7.17
2023-03-05T10:37:28.669Z,7.07
2023-03-05T10:39:55.499Z,6.03
2023-03-05T10:42:30.785Z,7.17
2023-03-05T10:44:59.356Z,9.00
2023-03-05T10:47:26.091Z,7.53
2023-03-05T10:49:54.200Z,10.03
2023-03-05T10:52:35.335Z,7.87
2023-03-05T10:55:02.336Z,6.13
2023-03-05T10:57:31.578Z,5.30
2023-03-05T11:00:01.252Z,8.43
2023-03-05T11:02:28.227Z,5.17
2023-03-05T11:04:55.546Z,5.70
2023-03-05T11:07:25.426Z,4.80
2023-03-05T11:10:04.321Z,5.60
2023-03-05T11:12:34.876Z,6.83
2023-03-05T11:15:01.617Z,7.10
2023-03-05T11:17:39.531Z,6.67
2023-03-05T11:20:25.287Z,7.80
2023-03-05T11:23:12.112Z,6.20
2023-03-05T11:25:54.416Z,5.30
2023-03-05T11:28:32.224Z,5.80
2023-03-05T11:31:05.044Z,5.23
2023-03-05T11:33:32.125Z,4.63
2023-03-05T11:36:13.191Z,4.13
2023-03-05T11:39:06.303Z,4.50
2023-03-05T11:41:41.427Z,4.97
2023-03-05T11:44:34.733Z,5.33
2023-03-05T11:47:20.094Z,4.43
2023-03-05T11:49:48.913Z,5.10
2023-03-05T11:52:22.340Z,4.10
2023-03-05T11:55:01.184Z,5.73
2023-03-05T11:57:29.424Z,5.13
2023-03-05T11:59:56.695Z,5.30
2023-03-05T12:02:24.258Z,5.30
2023-03-05T12:04:51.567Z,5.17
2023-03-05T12:07:33.300Z,5.03
2023-03-05T12:10:01.226Z,5.17
2023-03-05T12:12:28.817Z,6.93
2023-03-05T12:15:02.413Z,6.33
2023-03-05T12:17:33.613Z,9.57
2023-03-05T12:20:05.299Z,8.03
2023-03-05T12:22:34.422Z,5.47
2023-03-05T12:25:19.953Z,4.90
2023-03-05T12:27:47.166Z,5.97
2023-03-05T12:30:32.665Z,5.03
2023-03-05T12:33:00.187Z,5.90
2023-03-05T12:35:30.932Z,5.13
2023-03-05T12:37:59.005Z,6.50
2023-03-05T12:40:27.051Z,5.73
2023-03-05T12:42:58.222Z,4.80
2023-03-05T12:45:26.552Z,5.47
2023-03-05T12:47:53.404Z,8.77
2023-03-05T12:50:29.472Z,5.73
2023-03-05T12:53:10.471Z,5.73
2023-03-05T12:55:41.092Z,6.67
2023-03-05T12:58:10.903Z,8.07
2023-03-05T13:00:40.720Z,6.70
2023-03-05T13:03:10.048Z,5.60
2023-03-05T13:05:37.694Z,7.27
2023-03-05T13:08:20.413Z,6.70
2023-03-05T13:11:13.641Z,5.77
2023-03-05T13:13:44.850Z,5.33
2023-03-05T13:16:19.163Z,4.60
2023-03-05T13:18:47.585Z,5.10
2023-03-05T13:21:15.685Z,6.00
2023-03-05T13:23:46.799Z,5.67
2023-03-05T13:26:20.785Z,6.47
2023-03-05T13:29:05.400Z,6.13
2023-03-05T13:31:32.316Z,5.03
2023-03-05T13:34:05.950Z,5.27
2023-03-05T13:36:33.353Z,5.07
2023-03-05T13:39:00.887Z,4.50
2023-03-05T13:41:28.330Z,5.53
2023-03-05T13:43:55.182Z,5.93
2023-03-05T13:46:24.926Z,6.00
2023-03-05T13:48:52.010Z,7.30
2023-03-05T13:51:19.095Z,6.13
2023-03-05T13:53:46.282Z,8.27
2023-03-05T13:56:15.635Z,9.13
2023-03-05T13:58:50.906Z,11.23
2023-03-05T14:01:18.190Z,13.57
2023-03-05T14:03:46.367Z,10.37
2023-03-05T14:06:13.487Z,11.60
2023-03-05T14:08:40.667Z,11.10
2023-03-05T14:11:17.545Z,11.57
2023-03-05T14:13:44.998Z,10.27
2023-03-05T14:16:15.996Z,12.50
2023-03-05T14:18:56.981Z,9.90
2023-03-05T14:21:24.333Z,11.63
2023-03-05T14:23:54.970Z,9.50
2023-03-05T14:26:21.949Z,9.07
2023-03-05T14:29:00.611Z,15.77
2023-03-05T14:31:28.251Z,9.50
2023-03-05T14:34:00.087Z,10.43
2023-03-05T14:36:29.286Z,9.20
2023-03-05T14:38:57.025Z,7.77
2023-03-05T14:41:33.070Z,10.00
2023-03-05T14:43:59.934Z,8.17
2023-03-05T14:46:27.255Z,7.43
2023-03-05T14:48:54.580Z,6.20
2023-03-05T14:51:21.993Z,7.07
2023-03-05T14:53:51.200Z,7.67
2023-03-05T14:56:22.054Z,11.37
2023-03-05T14:58:48.936Z,11.17
2023-03-05T15:01:15.792Z,13.43
2023-03-05T15:03:42.667Z,7.57
2023-03-05T15:06:31.272Z,9.27
2023-03-05T15:08:58.123Z,6.00
2023-03-05T15:11:25.039Z,5.47
2023-03-05T15:13:51.912Z,8.03
2023-03-05T15:16:19.282Z,10.57
2023-03-05T15:18:46.132Z,10.17
2023-03-05T15:21:13.059Z,7.37
2023-03-05T15:23:40.261Z,5.77
2023-03-05T15:26:08.545Z,5.67
2023-03-05T15:28:36.981Z,5.77
2023-03-05T15:31:04.829Z,6.63
2023-03-05T15:33:31.813Z,6.40
2023-03-05T15:35:58.648Z,117.40
2023-03-05T15:38:25.955Z,179.90
2023-03-05T15:40:52.851Z,114.53
2023-03-05T15:43:19.681Z,32.43
2023-03-05T15:45:46.809Z,10.37
2023-03-05T15:48:13.898Z,29.03
2023-03-05T15:50:43.033Z,50.87
2023-03-05T15:53:11.512Z,6.70
2023-03-05T15:55:39.174Z,3.87
2023-03-05T15:58:06.410Z,8.33
2023-03-05T16:00:34.824Z,8.03
2023-03-05T16:03:01.676Z,3.70
2023-03-05T16:05:28.662Z,3.17
2023-03-05T16:07:55.942Z,2.93
2023-03-05T16:10:25.517Z,3.47
2023-03-05T16:13:03.774Z,3.13
2023-03-05T16:15:31.862Z,5.60
2023-03-05T16:18:00.580Z,7.27
2023-03-05T16:20:27.587Z,6.33
2023-03-05T16:22:54.636Z,6.30
2023-03-05T16:25:22.246Z,4.97
2023-03-05T16:27:49.152Z,5.13
2023-03-05T16:30:16.532Z,5.77
2023-03-05T16:32:43.949Z,8.17
2023-03-05T16:35:12.527Z,10.00
2023-03-05T16:37:40.075Z,9.93
2023-03-05T16:40:08.615Z,12.23
2023-03-05T16:42:35.514Z,14.60
2023-03-05T16:45:02.520Z,13.53
2023-03-05T16:47:29.488Z,8.73
2023-03-05T16:49:56.361Z,8.33
2023-03-05T16:52:23.238Z,8.00
2023-03-05T16:54:50.077Z,9.93
2023-03-05T16:57:17.016Z,14.70
2023-03-05T16:59:44.070Z,15.00
2023-03-05T17:02:13.332Z,12.73
2023-03-05T17:04:40.209Z,9.37
2023-03-05T17:07:07.200Z,11.10
2023-03-05T17:09:34.266Z,14.03
2023-03-05T17:12:01.097Z,16.90
2023-03-05T17:14:28.045Z,15.43
2023-03-05T17:16:54.870Z,15.00
2023-03-05T17:19:21.745Z,17.90
2023-03-05T17:21:51.245Z,15.43
2023-03-05T17:24:20.853Z,14.60
2023-03-05T17:26:49.751Z,12.63
2023-03-05T17:29:16.610Z,13.70
2023-03-05T17:31:43.945Z,19.37
2023-03-05T17:34:10.871Z,17.00
2023-03-05T17:36:39.482Z,17.27
2023-03-05T17:39:06.334Z,15.83
2023-03-05T17:41:33.884Z,16.73
2023-03-05T17:44:01.294Z,15.50
2023-03-05T17:46:28.150Z,16.03
2023-03-05T17:48:55.062Z,17.10
2023-03-05T17:51:22.504Z,19.90
2023-03-05T17:53:49.544Z,17.53
2023-03-05T17:56:17.471Z,19.23
2023-03-05T17:58:44.329Z,19.90
2023-03-05T18:01:11.187Z,18.67
2023-03-05T18:03:38.159Z,20.97
2023-03-05T18:06:05.195Z,20.70
2023-03-05T18:08:32.443Z,21.33
2023-03-05T18:10:59.419Z,15.17
2023-03-05T18:13:26.417Z,16.47
2023-03-05T18:15:53.230Z,45.40
2023-03-05T18:18:20.038Z,61.57
2023-03-05T18:20:48.841Z,33.67
2023-03-05T18:23:15.706Z,41.60
2023-03-05T18:25:42.679Z,25.57
2023-03-05T18:28:10.450Z,14.97
2023-03-05T18:30:37.932Z,10.43
2023-03-05T18:33:04.987Z,7.97
2023-03-05T18:35:33.668Z,12.97
2023-03-05T18:38:00.817Z,36.87
2023-03-05T18:40:29.546Z,15.93
2023-03-05T18:42:56.418Z,16.37
2023-03-05T18:45:23.529Z,11.73
2023-03-05T18:47:54.220Z,33.37
2023-03-05T18:50:21.705Z,22.83
2023-03-05T18:52:48.715Z,18.80
2023-03-05T18:55:16.738Z,14.53
2023-03-05T18:57:43.571Z,21.93
2023-03-05T19:00:13.123Z,16.50
2023-03-05T19:02:40.034Z,11.93
2023-03-05T19:05:07.001Z,11.30
2023-03-05T19:07:35.312Z,11.60
2023-03-05T19:10:07.585Z,13.73
2023-03-05T19:12:38.389Z,12.80
2023-03-05T19:15:06.315Z,12.03
2023-03-05T19:17:33.104Z,13.87
2023-03-05T19:20:00.250Z,14.83
2023-03-05T19:22:28.681Z,14.57
2023-03-05T19:24:55.958Z,13.37
2023-03-05T19:27:22.874Z,11.47
2023-03-05T19:29:50.214Z,15.90
2023-03-05T19:32:18.115Z,15.10
2023-03-05T19:34:45.313Z,17.80
2023-03-05T19:37:12.631Z,24.43
2023-03-05T19:39:39.905Z,26.07
2023-03-05T19:42:07.038Z,22.93
2023-03-05T19:44:33.769Z,22.13
2023-03-05T19:47:00.621Z,20.40
2023-03-05T19:49:27.509Z,13.37
2023-03-05T19:51:54.288Z,14.13
2023-03-05T19:54:22.115Z,14.20
2023-03-05T19:56:49.148Z,12.00
2023-03-05T19:59:18.065Z,11.53
2023-03-05T20:01:46.373Z,11.67
2023-03-05T20:04:15.664Z,12.30
2023-03-05T20:06:43.074Z,11.13
2023-03-05T20:09:10.741Z,11.20
2023-03-05T20:11:37.730Z,12.13
2023-03-05T20:14:04.745Z,11.30
2023-03-05T20:16:32.852Z,12.57
2023-03-05T20:19:00.253Z,10.93
2023-03-05T20:21:28.829Z,10.30
2023-03-05T20:23:57.220Z,11.07
2023-03-05T20:26:26.024Z,10.17
2023-03-05T20:28:53.553Z,10.63
2023-03-05T20:31:21.469Z,10.30
2023-03-05T20:33:50.631Z,11.17
2023-03-05T20:36:18.091Z,9.80
2023-03-05T20:38:45.896Z,9.90
2023-03-05T20:41:14.616Z,10.10
2023-03-05T20:43:44.755Z,10.57
2023-03-05T20:46:19.408Z,10.80
2023-03-05T20:48:48.546Z,11.20
2023-03-05T20:51:17.017Z,11.00
2023-03-05T20:53:43.866Z,10.33
2023-03-05T20:56:10.714Z,11.17
2023-03-05T20:58:38.153Z,10.90
2023-03-05T21:01:05.360Z,11.33
2023-03-05T21:03:32.220Z,11.33
2023-03-05T21:05:59.116Z,12.70
2023-03-05T21:08:25.946Z,11.60
2023-03-05T21:10:52.934Z,10.93
2023-03-05T21:13:19.844Z,12.23
2023-03-05T21:15:46.717Z,11.97
2023-03-05T21:18:13.587Z,12.07
2023-03-05T21:20:41.151Z,11.43
2023-03-05T21:23:08.021Z,11.57
2023-03-05T21:25:35.262Z,11.43
2023-03-05T21:28:12.676Z,11.87
2023-03-05T21:30:42.297Z,12.90
2023-03-05T21:33:13.503Z,13.87
2023-03-05T21:35:40.648Z,13.00
2023-03-05T21:38:08.583Z,12.53
2023-03-05T21:40:36.208Z,11.40
2023-03-05T21:43:04.013Z,11.97
2023-03-05T21:45:31.412Z,11.90
2023-03-05T21:47:59.417Z,11.53
2023-03-05T21:50:26.421Z,11.03
2023-03-05T21:52:53.256Z,12.50
2023-03-05T21:55:23.224Z,11.77
2023-03-05T21:57:50.079Z,10.60
2023-03-05T22:00:22.719Z,12.80
2023-03-05T22:02:49.920Z,15.03
2023-03-05T22:05:16.869Z,17.70
2023-03-05T22:07:43.664Z,15.67
2023-03-05T22:10:18.509Z,17.63
2023-03-05T22:13:09.132Z,17.70
2023-03-05T22:15:43.344Z,17.27
2023-03-05T22:18:11.546Z,15.87
2023-03-05T22:20:38.976Z,14.93
2023-03-05T22:23:06.958Z,12.20
2023-03-05T22:25:34.711Z,10.77
2023-03-05T22:28:01.563Z,12.73
2023-03-05T22:30:28.499Z,12.10
2023-03-05T22:32:56.186Z,11.83
2023-03-05T22:35:23.092Z,11.90
2023-03-05T22:37:50.885Z,11.33
2023-03-05T22:40:19.779Z,11.50
2023-03-05T22:42:47.137Z,13.80
2023-03-05T22:45:15.764Z,13.37
2023-03-05T22:47:42.661Z,12.43
2023-03-05T22:50:09.926Z,12.30
2023-03-05T22:52:36.661Z,12.07
2023-03-05T22:55:04.717Z,11.30
2023-03-05T22:57:32.736Z,11.50
2023-03-05T22:59:59.713Z,10.47
2023-03-05T23:02:26.868Z,14.43
2023-03-05T23:04:56.516Z,11.20
2023-03-05T23:07:23.755Z,11.10
2023-03-05T23:09:53.361Z,11.10
2023-03-05T23:12:20.518Z,11.70
2023-03-05T23:14:48.200Z,12.20
2023-03-05T23:17:15.772Z,12.03
2023-03-05T23:19:42.932Z,10.83
2023-03-05T23:22:11.631Z,12.53
2023-03-05T23:24:38.598Z,11.77
2023-03-05T23:27:06.221Z,11.87
2023-03-05T23:29:48.373Z,12.73
2023-03-05T23:32:16.246Z,14.20
2023-03-05T23:34:43.901Z,10.63
2023-03-05T23:37:11.013Z,11.67
2023-03-05T23:39:38.039Z,10.17
2023-03-05T23:42:04.994Z,9.73
2023-03-05T23:44:31.898Z,10.80
2023-03-05T23:46:59.635Z,12.03
2023-03-05T23:49:26.730Z,11.20
2023-03-05T23:51:53.560Z,11.07
2023-03-05T23:54:20.317Z,10.80
2023-03-05T23:56:47.169Z,11.30
2023-03-05T23:59:14.077Z,11.87
